Time;durP1;ratioP1;P1;durP2;ratioP2;P2;SDS_P1;SDS_P2;PMS_P1;PMS_P2;Temp;Humidity;BMP_temperature;BMP_pressure;BME280_temperature;BME280_humidity;BME280_pressure;Samples;Min_cycle;Max_cycle;Signal;HPM_P1;HPM_P2
2021/07/05 00:00:51;;;;;;;16.42;9.20;;;;;;;14.31;85.54;100689.94;5016567;28;20482;-70
2021/07/05 00:03:16;;;;;;;12.07;7.97;;;;;;;14.28;85.68;100694.72;5010243;28;20045;-69
2021/07/05 00:05:42;;;;;;;15.55;9.57;;;;;;;14.32;85.72;100696.78;5011687;28;20036;-71
2021/07/05 00:08:07;;;;;;;21.52;12.05;;;;;;;14.38;85.67;100695.25;5017794;28;20033;-69
2021/07/05 00:10:34;;;;;;;19.73;11.57;;;;;;;14.33;85.44;100693.19;5012185;28;20538;-72
2021/07/05 00:12:59;;;;;;;19.00;11.32;;;;;;;14.25;85.90;100695.09;5020825;28;20059;-70
2021/07/05 00:15:30;;;;;;;14.90;10.10;;;;;;;14.32;86.28;100685.56;5017335;28;20034;-70
2021/07/05 00:17:59;;;;;;;15.75;9.13;;;;;;;14.34;86.39;100683.56;5017223;28;20033;-69
2021/07/05 00:20:27;;;;;;;23.05;10.45;;;;;;;14.36;86.30;100679.78;5019349;28;20425;-70
2021/07/05 00:22:53;;;;;;;17.25;10.48;;;;;;;14.37;86.79;100677.97;5017281;28;20490;-71
2021/07/05 00:25:19;;;;;;;14.05;9.93;;;;;;;14.33;86.48;100676.72;5022765;28;20037;-70
2021/07/05 00:27:44;;;;;;;16.20;10.23;;;;;;;14.28;86.91;100679.06;5019283;28;20045;-69
2021/07/05 00:30:11;;;;;;;17.00;11.40;;;;;;;14.33;86.80;100681.94;5016678;28;20022;-71
2021/07/05 00:32:37;;;;;;;18.15;12.00;;;;;;;14.27;87.05;100682.69;5022074;28;20572;-70
2021/07/05 00:35:04;;;;;;;26.63;12.88;;;;;;;14.24;87.25;100683.03;5014453;28;20033;-71
2021/07/05 00:37:30;;;;;;;20.20;12.02;;;;;;;14.25;87.49;100666.41;5015526;28;20130;-71
2021/07/05 00:39:55;;;;;;;17.20;11.48;;;;;;;14.13;87.30;100669.50;5012783;28;20045;-71
2021/07/05 00:42:21;;;;;;;15.60;10.45;;;;;;;14.14;87.79;100673.69;5020385;28;20038;-71
2021/07/05 00:44:46;;;;;;;19.58;10.23;;;;;;;14.18;87.62;100672.38;5014305;28;20486;-71
2021/07/05 00:47:12;;;;;;;17.02;9.00;;;;;;;14.14;87.59;100659.88;5024247;28;20091;-70
2021/07/05 00:49:37;;;;;;;13.40;8.40;;;;;;;14.13;87.74;100659.06;5008939;28;20029;-70
2021/07/05 00:52:04;;;;;;;16.45;10.88;;;;;;;14.16;87.39;100648.25;5010265;28;20064;-70
2021/07/05 00:54:30;;;;;;;16.73;9.27;;;;;;;14.15;87.63;100651.88;5005113;28;20029;-71
2021/07/05 00:56:55;;;;;;;16.90;9.32;;;;;;;14.17;87.60;100649.09;5008189;28;20026;-70
2021/07/05 00:59:22;;;;;;;22.20;10.15;;;;;;;14.22;86.49;100649.31;5010306;28;20061;-70
2021/07/05 01:01:47;;;;;;;15.15;7.88;;;;;;;14.14;86.75;100650.22;5015178;28;20030;-71
2021/07/05 01:04:13;;;;;;;12.02;7.43;;;;;;;14.12;87.00;100646.22;5008869;28;20034;-71
2021/07/05 01:06:38;;;;;;;17.70;10.38;;;;;;;14.15;86.78;100644.03;5007489;28;20041;-70
2021/07/05 01:09:04;;;;;;;12.85;8.13;;;;;;;14.13;86.72;100651.25;5015012;28;20076;-71
2021/07/05 01:11:30;;;;;;;18.02;10.80;;;;;;;14.12;86.47;100639.19;5009963;28;20471;-71
2021/07/05 01:13:56;;;;;;;12.73;8.38;;;;;;;14.12;86.96;100643.59;5003719;28;20034;-70
2021/07/05 01:16:21;;;;;;;15.07;8.85;;;;;;;14.12;86.70;100644.41;5007647;28;20038;-71
2021/07/05 01:18:47;;;;;;;15.48;9.13;;;;;;;14.14;86.33;100637.19;5011798;28;20075;-70
2021/07/05 01:21:13;;;;;;;17.67;11.73;;;;;;;14.14;85.45;100631.97;5009392;28;20068;-69
2021/07/05 01:23:38;;;;;;;23.77;13.50;;;;;;;14.14;85.78;100639.00;5009534;28;20049;-71
2021/07/05 01:26:04;;;;;;;17.73;10.35;;;;;;;14.06;86.33;100639.91;5006722;28;20285;-70
2021/07/05 01:28:30;;;;;;;23.52;13.38;;;;;;;14.09;85.76;100642.19;5008026;28;20054;-71
2021/07/05 01:30:55;;;;;;;16.00;10.38;;;;;;;14.04;86.35;100641.91;5012311;28;20152;-70
2021/07/05 01:33:21;;;;;;;23.20;10.30;;;;;;;14.04;86.47;100639.31;5009464;28;20088;-71
2021/07/05 01:35:47;;;;;;;13.57;9.63;;;;;;;14.07;86.37;100635.50;5008771;28;20034;-71
2021/07/05 01:38:19;;;;;;;16.10;8.70;;;;;;;14.07;86.51;100633.72;5008891;28;20033;-70
2021/07/05 01:40:51;;;;;;;19.38;10.15;;;;;;;14.13;86.38;100614.75;5008384;28;20041;-71
2021/07/05 01:43:17;;;;;;;13.88;8.20;;;;;;;14.10;86.35;100620.31;5008046;28;20044;-71
2021/07/05 01:45:43;;;;;;;21.95;8.10;;;;;;;13.98;86.88;100614.78;5007438;28;20128;-71
2021/07/05 01:48:08;;;;;;;15.18;7.47;;;;;;;14.02;86.70;100623.03;5004819;28;20061;-71
2021/07/05 01:50:34;;;;;;;16.30;8.50;;;;;;;14.11;86.83;100621.09;5015396;28;20041;-71
2021/07/05 01:53:00;;;;;;;18.02;8.43;;;;;;;14.02;86.92;100618.63;5006854;28;20036;-70
2021/07/05 01:55:30;;;;;;;10.90;6.70;;;;;;;13.96;87.22;100618.56;5002817;28;20537;-71
2021/07/05 01:57:57;;;;;;;17.00;7.20;;;;;;;14.02;87.09;100612.59;5007172;28;20027;-69
2021/07/05 02:00:23;;;;;;;16.48;7.13;;;;;;;14.05;86.94;100620.03;4991382;28;20033;-71
2021/07/05 02:02:52;;;;;;;10.02;5.43;;;;;;;14.02;87.01;100615.22;5005028;28;20034;-71
2021/07/05 02:05:18;;;;;;;20.85;6.10;;;;;;;14.06;86.79;100610.44;5003717;28;20446;-70
2021/07/05 02:07:45;;;;;;;13.63;5.22;;;;;;;14.06;86.93;100610.44;5006743;28;20060;-71
2021/07/05 02:10:17;;;;;;;12.65;5.20;;;;;;;14.00;87.18;100604.16;5008183;28;20046;-70
2021/07/05 02:12:43;;;;;;;10.73;5.38;;;;;;;14.08;87.05;100606.66;5007984;28;20041;-71
2021/07/05 02:15:11;;;;;;;12.48;5.72;;;;;;;14.10;86.93;100596.84;5000700;28;20436;-71
2021/07/05 02:17:37;;;;;;;9.50;4.57;;;;;;;14.03;87.01;100593.34;5005757;28;20375;-71
2021/07/05 02:20:16;;;;;;;6.07;4.22;;;;;;;13.98;87.47;100595.72;5009806;28;20108;-71
2021/07/05 02:22:43;;;;;;;12.07;4.10;;;;;;;13.99;87.42;100594.72;5014021;28;20022;-70
2021/07/05 02:25:11;;;;;;;12.45;4.00;;;;;;;14.02;87.28;100599.56;5006834;28;20087;-71
2021/07/05 02:27:38;;;;;;;8.18;4.38;;;;;;;14.08;86.87;100585.00;5007816;28;20033;-71
2021/07/05 02:30:10;;;;;;;13.00;4.35;;;;;;;14.10;87.12;100585.63;5008667;28;20121;-70
2021/07/05 02:32:36;;;;;;;10.75;3.63;;;;;;;14.14;86.59;100571.22;5002780;28;20036;-69
2021/07/05 02:35:03;;;;;;;8.68;3.33;;;;;;;14.08;86.92;100574.56;5002711;28;20042;-70
2021/07/05 02:37:29;;;;;;;14.70;4.40;;;;;;;14.05;87.24;100574.94;5006527;28;20018;-71
2021/07/05 02:39:55;;;;;;;6.82;3.30;;;;;;;14.03;87.21;100590.75;5003370;28;20088;-71
2021/07/05 02:42:20;;;;;;;8.63;3.28;;;;;;;14.04;87.21;100589.75;5008285;28;20430;-70
2021/07/05 02:44:46;;;;;;;14.85;3.50;;;;;;;14.06;87.31;100598.22;5008148;28;20041;-71
2021/07/05 02:47:11;;;;;;;9.75;3.20;;;;;;;14.03;87.34;100585.53;5002749;28;20031;-71
2021/07/05 02:49:36;;;;;;;9.27;3.65;;;;;;;14.13;87.36;100591.28;5005377;28;20539;-70
2021/07/05 02:52:02;;;;;;;9.82;3.25;;;;;;;14.13;86.85;100593.88;5006800;28;20441;-71
2021/07/05 02:54:28;;;;;;;10.57;3.38;;;;;;;14.11;87.10;100590.66;5007726;28;20081;-71
2021/07/05 02:56:53;;;;;;;9.70;2.63;;;;;;;14.10;87.22;100599.44;5006283;28;20045;-71
2021/07/05 02:59:19;;;;;;;8.27;2.65;;;;;;;14.14;87.33;100595.47;5000470;28;20164;-71
2021/07/05 03:01:45;;;;;;;7.13;2.70;;;;;;;14.17;87.06;100595.13;4989671;28;20034;-72
2021/07/05 03:04:11;;;;;;;4.20;2.13;;;;;;;14.18;86.96;100595.91;5007689;28;20069;-70
2021/07/05 03:06:36;;;;;;;6.68;2.25;;;;;;;14.17;87.24;100602.94;5002999;28;20045;-71
2021/07/05 03:09:03;;;;;;;9.25;2.60;;;;;;;14.20;87.48;100596.53;5006945;28;20022;-71
2021/07/05 03:11:28;;;;;;;5.95;2.63;;;;;;;14.21;87.44;100593.75;5009809;28;20393;-71
2021/07/05 03:13:54;;;;;;;6.18;2.30;;;;;;;14.26;87.60;100590.63;5031227;28;20033;-71
2021/07/05 03:16:19;;;;;;;10.45;2.35;;;;;;;14.27;87.63;100599.22;5005606;28;20041;-69
2021/07/05 03:18:45;;;;;;;11.15;2.60;;;;;;;14.33;87.79;100595.88;5007426;28;20037;-72
2021/07/05 03:21:10;;;;;;;3.75;1.75;;;;;;;14.33;87.78;100604.50;5005809;28;20128;-72
2021/07/05 03:23:36;;;;;;;9.55;2.55;;;;;;;14.36;87.93;100611.16;5008419;28;20033;-70
2021/07/05 03:26:01;;;;;;;11.38;2.20;;;;;;;14.38;87.81;100609.97;5007971;28;20103;-71
2021/07/05 03:28:27;;;;;;;7.03;2.05;;;;;;;14.39;87.91;100611.59;5011074;28;20469;-71
2021/07/05 03:30:53;;;;;;;3.15;1.80;;;;;;;14.41;88.00;100614.03;5011075;28;20421;-71
2021/07/05 03:33:19;;;;;;;12.27;2.55;;;;;;;14.51;88.10;100616.34;5011894;28;20038;-71
2021/07/05 03:35:46;;;;;;;5.90;2.15;;;;;;;14.76;88.19;100637.66;4996473;28;20611;-71
2021/07/05 03:38:12;;;;;;;12.75;2.63;;;;;;;14.84;88.05;100653.19;5010868;28;20041;-73
2021/07/05 03:40:39;;;;;;;10.90;4.57;;;;;;;14.88;87.79;100651.00;5009385;28;20605;-75
2021/07/05 03:43:06;;;;;;;7.95;4.47;;;;;;;14.82;87.61;100649.97;5009132;28;20112;-73
2021/07/05 03:45:34;;;;;;;8.40;5.13;;;;;;;14.87;87.83;100652.03;5010370;28;20675;-73
2021/07/05 03:48:00;;;;;;;10.48;7.43;;;;;;;14.73;87.21;100651.91;5008558;28;20027;-74
2021/07/05 03:50:27;;;;;;;11.70;6.97;;;;;;;14.56;86.61;100655.69;5003857;28;20030;-76
2021/07/05 03:53:11;;;;;;;16.02;6.20;;;;;;;14.53;86.32;100651.66;5011941;28;20044;-74
2021/07/05 03:55:37;;;;;;;9.65;5.18;;;;;;;14.47;85.99;100659.44;5002177;28;20038;-75
2021/07/05 03:58:03;;;;;;;7.57;4.80;;;;;;;14.32;85.45;100662.88;5006983;28;20435;-73
2021/07/05 04:00:37;;;;;;;9.40;4.57;;;;;;;14.33;86.12;100672.31;5026128;28;20432;-74
2021/07/05 04:03:04;;;;;;;10.48;4.25;;;;;;;14.24;86.13;100681.25;5009213;28;20482;-73
2021/07/05 04:05:29;;;;;;;12.27;3.67;;;;;;;14.19;86.66;100676.59;5009914;28;20112;-73
2021/07/05 04:07:55;;;;;;;6.30;3.40;;;;;;;14.10;86.61;100685.50;5010945;28;20045;-75
2021/07/05 04:10:21;;;;;;;8.25;3.50;;;;;;;14.08;86.81;100676.25;4995509;28;20409;-74
2021/07/05 04:12:47;;;;;;;8.98;3.78;;;;;;;14.08;86.97;100671.84;4993498;28;20503;-75
2021/07/05 04:15:14;;;;;;;16.15;5.03;;;;;;;14.05;87.35;100668.78;5009227;28;20036;-74
2021/07/05 04:17:39;;;;;;;7.78;4.10;;;;;;;14.01;87.57;100673.53;5008686;28;20474;-74
2021/07/05 04:20:19;;;;;;;10.00;4.80;;;;;;;14.07;86.95;100677.22;5025399;28;20088;-73
2021/07/05 04:22:45;;;;;;;8.65;3.90;;;;;;;14.02;86.65;100673.38;5004475;28;20422;-73
2021/07/05 04:25:13;;;;;;;7.85;3.35;;;;;;;14.11;86.63;100673.25;5007627;28;20168;-73
2021/07/05 04:27:39;;;;;;;7.18;3.88;;;;;;;14.06;86.67;100680.84;5008846;28;20108;-72
2021/07/05 04:30:06;;;;;;;7.57;4.30;;;;;;;14.00;86.80;100677.16;4999824;28;20034;-73
2021/07/05 04:32:32;;;;;;;9.75;3.20;;;;;;;14.02;86.30;100669.97;5013799;28;20036;-72
2021/07/05 04:34:58;;;;;;;10.13;3.33;;;;;;;13.97;86.78;100678.31;5000038;28;20411;-72
2021/07/05 04:37:23;;;;;;;8.82;3.85;;;;;;;13.94;87.01;100686.50;5008816;28;20046;-72
2021/07/05 04:39:49;;;;;;;7.45;2.95;;;;;;;13.92;87.33;100685.06;5010445;28;20026;-71
2021/07/05 04:42:15;;;;;;;6.18;3.30;;;;;;;13.90;87.42;100676.59;5008448;28;20034;-72
2021/07/05 04:44:41;;;;;;;6.32;3.10;;;;;;;13.94;87.09;100675.28;5010956;28;20030;-71
2021/07/05 04:47:06;;;;;;;8.00;3.00;;;;;;;13.98;86.82;100684.34;5014274;28;20446;-72
2021/07/05 04:49:32;;;;;;;9.27;4.28;;;;;;;13.98;86.84;100685.16;5011506;28;20026;-71
2021/07/05 04:51:58;;;;;;;9.13;3.30;;;;;;;13.99;86.89;100684.19;5010963;28;20712;-72
2021/07/05 04:54:24;;;;;;;8.52;3.65;;;;;;;13.95;87.16;100687.31;5013316;28;20057;-71
2021/07/05 04:56:50;;;;;;;8.82;3.53;;;;;;;13.93;87.36;100692.69;5014513;28;20545;-69
2021/07/05 04:59:15;;;;;;;5.68;2.85;;;;;;;13.92;87.35;100688.50;5009555;28;20045;-71
2021/07/05 05:01:45;;;;;;;6.00;2.72;;;;;;;13.96;87.22;100688.94;5010024;28;20038;-71
2021/07/05 05:04:10;;;;;;;5.47;3.17;;;;;;;13.94;87.36;100689.13;5024869;28;20401;-71
2021/07/05 05:06:36;;;;;;;6.40;2.72;;;;;;;13.94;87.50;100686.50;5008666;28;20486;-71
2021/07/05 05:09:01;;;;;;;6.85;3.08;;;;;;;13.96;87.39;100692.34;4990252;28;20053;-71
2021/07/05 05:11:27;;;;;;;4.78;3.10;;;;;;;13.98;87.20;100697.38;5009545;28;20022;-71
2021/07/05 05:13:53;;;;;;;13.90;3.28;;;;;;;13.97;86.95;100699.16;5012244;28;20030;-71
2021/07/05 05:16:19;;;;;;;7.43;2.17;;;;;;;14.01;87.21;100689.19;5013513;23;20041;-74
2021/07/05 05:18:44;;;;;;;4.93;2.40;;;;;;;14.02;87.07;100688.22;5002660;28;20041;-75
2021/07/05 05:21:11;;;;;;;3.97;2.28;;;;;;;14.06;86.96;100676.41;5011666;28;20119;-75
2021/07/05 05:23:36;;;;;;;6.47;2.53;;;;;;;14.08;86.57;100681.47;4992069;28;20061;-75
2021/07/05 05:26:02;;;;;;;4.30;2.10;;;;;;;14.07;86.67;100687.66;4999796;28;20162;-74
2021/07/05 05:28:28;;;;;;;4.80;2.20;;;;;;;14.07;86.39;100678.06;4999631;28;20067;-75
2021/07/05 05:30:53;;;;;;;4.50;2.38;;;;;;;14.09;86.04;100680.44;5015170;23;20111;-71
2021/07/05 05:33:19;;;;;;;6.95;3.30;;;;;;;14.09;85.11;100680.44;5017858;28;20696;-72
2021/07/05 05:35:44;;;;;;;3.75;2.40;;;;;;;14.05;85.25;100685.22;5028917;28;20026;-72
2021/07/05 05:38:10;;;;;;;6.95;2.28;;;;;;;14.08;85.42;100671.84;5029163;28;20104;-72
2021/07/05 05:40:35;;;;;;;3.90;2.38;;;;;;;14.10;85.66;100679.47;5029710;28;20057;-71
2021/07/05 05:43:01;;;;;;;4.22;2.10;;;;;;;14.12;85.77;100670.47;5028085;28;20029;-72
2021/07/05 05:45:26;;;;;;;6.57;3.28;;;;;;;14.18;85.78;100664.56;5019992;28;20060;-72
2021/07/05 05:47:52;;;;;;;8.95;3.05;;;;;;;14.23;85.00;100665.78;5029341;28;20033;-73
2021/07/05 05:50:18;;;;;;;4.65;3.03;;;;;;;14.29;84.44;100663.25;5026748;28;20464;-71
2021/07/05 05:52:44;;;;;;;6.63;2.78;;;;;;;14.25;84.57;100662.00;5020616;28;20136;-72
2021/07/05 05:55:10;;;;;;;7.35;2.88;;;;;;;14.23;84.99;100653.56;5027624;28;20045;-72
2021/07/05 05:57:38;;;;;;;7.47;3.38;;;;;;;14.25;85.17;100648.16;5037749;28;20017;-72
2021/07/05 06:00:10;;;;;;;6.03;3.28;;;;;;;14.27;85.28;100648.78;5031482;28;20029;-72
2021/07/05 06:02:36;;;;;;;5.03;3.20;;;;;;;14.31;85.26;100650.03;5029251;28;20033;-72
2021/07/05 06:05:03;;;;;;;4.13;2.50;;;;;;;14.38;85.19;100661.34;5027682;28;20052;-72
2021/07/05 06:07:28;;;;;;;4.82;2.97;;;;;;;14.44;85.23;100660.59;5028547;28;20152;-72
2021/07/05 06:09:54;;;;;;;6.18;3.00;;;;;;;14.51;85.09;100651.06;5032312;28;20025;-72
2021/07/05 06:12:20;;;;;;;2.75;2.08;;;;;;;14.60;85.11;100657.00;5028607;28;20115;-72
2021/07/05 06:14:46;;;;;;;7.90;3.28;;;;;;;14.72;84.42;100655.50;5028538;28;20049;-72
2021/07/05 06:17:12;;;;;;;4.90;2.55;;;;;;;14.75;84.33;100665.56;5017231;28;20029;-72
2021/07/05 06:19:37;;;;;;;4.75;2.28;;;;;;;14.79;84.70;100668.63;5008061;28;20037;-72
2021/07/05 06:22:12;;;;;;;5.45;2.55;;;;;;;14.85;84.67;100675.69;5028164;28;20037;-72
2021/07/05 06:24:38;;;;;;;4.18;2.67;;;;;;;14.94;84.40;100671.97;5022931;28;20090;-72
2021/07/05 06:27:04;;;;;;;4.60;2.58;;;;;;;14.93;84.31;100670.34;5018996;28;20057;-72
2021/07/05 06:29:29;;;;;;;5.07;3.03;;;;;;;15.04;83.23;100665.63;5011334;28;20124;-72
2021/07/05 06:31:55;;;;;;;4.75;1.95;;;;;;;15.15;83.38;100670.31;5040386;28;20095;-73
2021/07/05 06:34:20;;;;;;;4.63;2.65;;;;;;;15.26;82.58;100667.19;5027628;28;20033;-72
2021/07/05 06:36:46;;;;;;;5.55;3.20;;;;;;;15.31;82.75;100672.66;5025781;28;20083;-71
2021/07/05 06:39:11;;;;;;;5.63;2.78;;;;;;;15.53;82.07;100657.72;5029761;28;20029;-71
2021/07/05 06:41:37;;;;;;;7.40;2.42;;;;;;;15.42;81.95;100660.06;5027747;28;20407;-71
2021/07/05 06:44:02;;;;;;;10.10;2.92;;;;;;;15.48;82.65;100654.91;5020691;28;20060;-71
2021/07/05 06:46:28;;;;;;;6.18;2.70;;;;;;;15.57;81.58;100663.38;5028350;28;20760;-73
2021/07/05 06:48:53;;;;;;;6.18;2.60;;;;;;;15.64;81.93;100655.59;5029557;28;20043;-71
2021/07/05 06:51:20;;;;;;;4.28;2.33;;;;;;;15.80;81.93;100657.09;5027350;28;20049;-71
2021/07/05 06:53:46;;;;;;;4.57;2.67;;;;;;;15.89;81.74;100655.94;5030893;28;20025;-71
2021/07/05 06:56:11;;;;;;;6.00;2.80;;;;;;;15.88;82.15;100662.97;5029778;28;20064;-71
2021/07/05 06:58:37;;;;;;;4.93;2.60;;;;;;;15.84;82.73;100671.38;5029812;28;20041;-71
2021/07/05 07:01:03;;;;;;;5.57;3.08;;;;;;;15.83;82.50;100683.66;5031329;28;20036;-71
2021/07/05 07:03:29;;;;;;;6.60;3.17;;;;;;;15.81;80.80;100685.66;5028106;28;20056;-70
2021/07/05 07:05:55;;;;;;;7.00;3.60;;;;;;;15.79;81.30;100694.72;5035410;28;20473;-69
2021/07/05 07:08:21;;;;;;;5.72;3.10;;;;;;;15.76;80.92;100695.88;5036730;28;20473;-70
2021/07/05 07:10:47;;;;;;;5.03;2.97;;;;;;;15.81;82.64;100696.13;5035353;28;20028;-70
2021/07/05 07:13:12;;;;;;;5.13;2.70;;;;;;;15.85;82.74;100704.38;5033013;28;20477;-71
2021/07/05 07:15:40;;;;;;;4.97;3.28;;;;;;;15.90;82.31;100692.34;5031212;28;20029;-72
2021/07/05 07:20:46;;;;;;;5.15;2.80;;;;;;;16.01;80.54;100696.22;5036700;28;20051;-70
2021/07/05 07:23:12;;;;;;;8.32;3.15;;;;;;;16.09;80.82;100695.25;5030251;28;20433;-70
2021/07/05 07:25:37;;;;;;;4.80;3.00;;;;;;;16.04;80.79;100695.81;5016302;28;20033;-71
2021/07/05 07:28:03;;;;;;;13.48;2.92;;;;;;;16.17;80.66;100700.31;5035353;28;20397;-70
2021/07/05 07:30:28;;;;;;;5.28;3.00;;;;;;;16.46;80.30;100693.16;5033147;28;20492;-70
2021/07/05 07:32:54;;;;;;;11.38;2.58;;;;;;;16.84;79.13;100703.13;5031201;28;20037;-70
2021/07/05 07:35:19;;;;;;;5.32;2.80;;;;;;;17.11;79.32;100691.66;5033922;28;20195;-70
2021/07/05 07:37:47;;;;;;;5.50;2.75;;;;;;;17.37;77.74;100690.06;5028365;28;20095;-70
2021/07/05 07:40:16;;;;;;;9.45;2.47;;;;;;;17.67;78.07;100684.38;5033896;28;20038;-71
2021/07/05 07:42:42;;;;;;;7.38;2.50;;;;;;;17.59;76.36;100687.97;5036352;28;20071;-70
2021/07/05 07:45:09;;;;;;;6.60;2.90;;;;;;;17.77;76.42;100682.09;5031274;28;20470;-70
2021/07/05 07:47:35;;;;;;;11.48;2.70;;;;;;;17.84;76.22;100684.72;5033102;28;20429;-70
2021/07/05 07:50:00;;;;;;;6.35;2.55;;;;;;;17.86;74.17;100682.72;5033688;28;20292;-70
2021/07/05 07:52:27;;;;;;;7.20;2.80;;;;;;;17.97;73.99;100682.09;5030998;28;20397;-71
2021/07/05 07:54:52;;;;;;;7.03;2.17;;;;;;;18.34;73.89;100678.88;5033351;28;20041;-70
2021/07/05 07:57:19;;;;;;;5.50;2.47;;;;;;;18.85;72.05;100680.59;5033785;28;20069;-70
2021/07/05 07:59:45;;;;;;;4.75;2.22;;;;;;;19.23;71.91;100666.53;5018078;28;20032;-71
2021/07/05 08:02:11;;;;;;;7.47;2.30;;;;;;;19.14;65.09;100670.50;5033703;28;20552;-71
2021/07/05 08:04:37;;;;;;;6.88;2.55;;;;;;;19.20;68.90;100669.63;5019724;28;20037;-71
2021/07/05 08:07:03;;;;;;;11.57;2.42;;;;;;;19.08;69.65;100685.31;5038984;28;20029;-71
2021/07/05 08:09:29;;;;;;;6.20;2.05;;;;;;;18.99;70.74;100681.34;5035730;28;20037;-71
2021/07/05 08:11:54;;;;;;;6.25;2.17;;;;;;;18.92;70.61;100688.44;5018862;28;20018;-71
2021/07/05 08:14:20;;;;;;;5.80;1.70;;;;;;;18.87;69.78;100691.69;5031791;28;20064;-70
2021/07/05 08:16:45;;;;;;;7.50;2.20;;;;;;;18.81;73.00;100695.19;5032747;28;20034;-71
2021/07/05 08:19:11;;;;;;;6.63;2.33;;;;;;;18.80;71.20;100697.03;5034279;28;20036;-71
2021/07/05 08:21:37;;;;;;;21.63;3.47;;;;;;;18.98;69.60;100682.34;5029440;28;20522;-71
2021/07/05 08:24:04;;;;;;;9.43;2.55;;;;;;;18.91;69.31;100694.72;5038794;28;20448;-70
2021/07/05 08:26:30;;;;;;;6.00;2.10;;;;;;;19.00;69.17;100686.34;5036151;28;20029;-71
2021/07/05 08:28:56;;;;;;;5.95;1.85;;;;;;;18.89;68.67;100687.03;5021491;28;20112;-70
2021/07/05 08:31:21;;;;;;;4.03;2.00;;;;;;;18.99;69.61;100682.13;5038358;28;20171;-71
2021/07/05 08:33:50;;;;;;;7.93;1.92;;;;;;;19.00;70.14;100688.19;5037618;28;20032;-71
2021/07/05 08:36:16;;;;;;;6.82;2.10;;;;;;;19.14;69.46;100694.94;5037395;28;20048;-71
2021/07/05 08:38:42;;;;;;;8.02;2.20;;;;;;;19.14;69.76;100689.69;5037254;28;20021;-71
2021/07/05 08:41:07;;;;;;;7.82;2.88;;;;;;;19.01;69.34;100697.69;5040970;28;20036;-71
2021/07/05 08:43:32;;;;;;;6.85;1.90;;;;;;;18.88;69.76;100695.16;5039158;28;20059;-71
2021/07/05 08:46:03;;;;;;;8.90;2.47;;;;;;;18.88;70.09;100703.03;5041677;28;20021;-71
2021/07/05 08:48:31;;;;;;;9.35;2.10;;;;;;;18.90;69.44;100706.25;5038492;28;20113;-71
2021/07/05 08:50:59;;;;;;;7.00;2.05;;;;;;;18.77;69.83;100707.13;5029549;28;20044;-71
2021/07/05 08:53:25;;;;;;;5.18;1.85;;;;;;;18.68;69.81;100709.19;5038945;28;20072;-73
2021/07/05 08:55:51;;;;;;;6.05;2.38;;;;;;;18.62;68.23;100708.19;5018692;28;20029;-71
2021/07/05 08:58:16;;;;;;;5.25;1.88;;;;;;;18.56;68.55;100708.25;5029418;28;20090;-71
2021/07/05 09:00:43;;;;;;;5.80;1.70;;;;;;;18.52;69.53;100713.13;5038295;28;20030;-71
2021/07/05 09:03:09;;;;;;;7.18;2.13;;;;;;;18.46;69.94;100703.47;5032403;28;20041;-70
2021/07/05 09:05:34;;;;;;;11.50;3.15;;;;;;;18.48;70.38;100694.34;5028939;28;20049;-71
2021/07/05 09:08:11;;;;;;;6.68;1.80;;;;;;;18.54;70.22;100695.34;5022584;28;20112;-71
2021/07/05 09:10:42;;;;;;;6.10;1.67;;;;;;;18.60;69.42;100697.09;5024830;28;20029;-70
2021/07/05 09:13:19;;;;;;;6.18;1.90;;;;;;;18.66;70.22;100692.84;5029228;28;20034;-72
2021/07/05 09:15:52;;;;;;;5.35;1.90;;;;;;;18.74;69.65;100697.03;5033853;28;20033;-71
2021/07/05 09:18:38;;;;;;;10.63;2.50;;;;;;;19.01;68.90;100692.44;5029816;28;20022;-71
2021/07/05 09:21:15;;;;;;;4.40;1.75;;;;;;;19.19;69.27;100695.13;5028728;28;20036;-70
2021/07/05 09:23:52;;;;;;;10.30;1.98;;;;;;;19.28;67.79;100698.25;5028632;28;20040;-72
2021/07/05 09:26:19;;;;;;;4.97;1.75;;;;;;;19.35;68.72;100693.75;5028410;28;20036;-71
2021/07/05 09:28:46;;;;;;;6.28;2.08;;;;;;;19.39;69.05;100691.50;5007609;28;20121;-71
2021/07/05 09:31:12;;;;;;;5.93;2.03;;;;;;;19.38;67.71;100700.38;5009839;28;20137;-71
2021/07/05 09:33:45;;;;;;;3.08;1.60;;;;;;;19.32;66.37;100702.06;5028987;28;20037;-71
2021/07/05 09:36:21;;;;;;;7.18;2.20;;;;;;;19.14;67.38;100700.19;5028425;28;20688;-71
2021/07/05 09:38:47;;;;;;;6.82;2.47;;;;;;;19.09;65.58;100702.66;5009916;28;20397;-70
2021/07/05 09:41:28;;;;;;;5.13;1.73;;;;;;;19.02;65.97;100691.41;5029164;28;20037;-71
2021/07/05 09:43:57;;;;;;;6.60;1.67;;;;;;;19.13;65.79;100695.94;5029061;28;20095;-71
2021/07/05 09:46:43;;;;;;;4.93;1.80;;;;;;;19.34;65.55;100693.97;5036732;28;20041;-70
2021/07/05 09:49:14;;;;;;;7.18;1.70;;;;;;;19.51;65.75;100705.50;5026639;28;20577;-70
2021/07/05 09:51:41;;;;;;;6.88;2.40;;;;;;;19.57;62.69;100699.41;5016593;28;20044;-71
2021/07/05 09:54:07;;;;;;;5.10;1.58;;;;;;;19.44;62.67;100702.16;5035214;28;20032;-71
2021/07/05 09:56:33;;;;;;;6.18;1.85;;;;;;;19.52;62.82;100701.09;5035392;28;20124;-71
2021/07/05 09:59:20;;;;;;;8.15;1.50;;;;;;;19.23;60.99;100709.44;5031162;28;20025;-71
2021/07/05 10:01:49;;;;;;;5.80;1.23;;;;;;;19.09;61.96;100707.13;5020097;28;20444;-71
2021/07/05 10:06:57;;;;;;;6.43;1.73;;;;;;;18.89;63.40;100699.38;5031370;28;20062;-71
2021/07/05 10:09:43;;;;;;;5.55;1.52;;;;;;;18.94;62.97;100702.19;5027980;28;20030;-71
2021/07/05 10:12:21;;;;;;;3.05;1.30;;;;;;;19.24;62.28;100690.00;5027243;28;20043;-71
2021/07/05 10:14:55;;;;;;;5.25;1.40;;;;;;;19.07;62.50;100686.31;5026802;28;20039;-71
2021/07/05 10:17:22;;;;;;;7.15;1.58;;;;;;;19.06;62.96;100688.13;5027923;28;20060;-71
2021/07/05 10:19:47;;;;;;;4.78;1.70;;;;;;;19.15;63.95;100679.97;5022601;28;20390;-71
2021/07/05 10:22:14;;;;;;;10.88;2.10;;;;;;;19.28;62.79;100674.59;5032237;28;20044;-71
2021/07/05 10:24:42;;;;;;;6.80;1.55;;;;;;;19.67;58.80;100682.31;5033537;28;20036;-71
2021/07/05 10:27:12;;;;;;;3.33;1.20;;;;;;;19.85;60.65;100669.16;5030599;28;20163;-72
2021/07/05 10:29:38;;;;;;;6.00;1.40;;;;;;;20.24;56.56;100674.97;5020809;28;20108;-71
2021/07/05 10:32:04;;;;;;;9.25;1.30;;;;;;;20.60;57.30;100665.38;5023808;28;20059;-71
2021/07/05 10:34:30;;;;;;;5.78;1.30;;;;;;;20.77;57.41;100676.06;5012313;28;20033;-70
2021/07/05 10:36:57;;;;;;;5.70;1.20;;;;;;;20.72;57.77;100675.94;5022594;28;20041;-71
2021/07/05 10:39:25;;;;;;;5.05;1.38;;;;;;;20.63;53.86;100672.84;5026978;28;20029;-71
2021/07/05 10:41:51;;;;;;;4.53;1.00;;;;;;;20.64;56.01;100671.81;5024015;28;20037;-71
2021/07/05 10:44:20;;;;;;;3.20;1.20;;;;;;;20.82;56.29;100670.13;5027602;28;20041;-71
2021/07/05 10:46:55;;;;;;;5.05;1.30;;;;;;;20.93;57.01;100671.97;5008610;28;20486;-71
2021/07/05 10:49:33;;;;;;;7.97;1.60;;;;;;;20.89;55.48;100669.00;5032499;28;20029;-70
2021/07/05 10:52:13;;;;;;;5.07;1.30;;;;;;;21.19;55.47;100658.34;5030607;28;20037;-72
2021/07/05 10:54:53;;;;;;;4.35;1.17;;;;;;;21.22;48.64;100658.94;5015827;28;20119;-71
2021/07/05 10:57:23;;;;;;;4.53;1.17;;;;;;;21.29;48.53;100656.97;5018650;28;20044;-71
2021/07/05 10:59:50;;;;;;;6.97;1.27;;;;;;;21.23;52.23;100661.34;5034720;28;20029;-72
2021/07/05 11:02:39;;;;;;;6.47;1.73;;;;;;;21.35;52.32;100654.22;5035977;28;20029;-72
2021/07/05 11:05:27;;;;;;;8.05;2.25;;;;;;;21.65;53.47;100655.13;5030060;28;20033;-71
2021/07/05 11:07:55;;;;;;;3.58;1.08;;;;;;;22.06;56.42;100648.00;5010610;28;20037;-72
2021/07/05 11:10:27;;;;;;;4.03;1.60;;;;;;;22.25;50.38;100651.25;5020366;28;20021;-72
2021/07/05 11:13:02;;;;;;;7.50;1.90;;;;;;;22.23;50.99;100642.75;5028279;28;20034;-72
2021/07/05 11:15:54;;;;;;;5.32;1.25;;;;;;;21.65;50.96;100649.84;5014476;28;20033;-71
2021/07/05 11:18:49;;;;;;;7.35;1.88;;;;;;;21.94;47.26;100642.75;5037490;22;20144;-70
2021/07/05 11:21:23;;;;;;;2.28;0.95;;;;;;;21.83;52.08;100640.94;4996582;28;20068;-71
2021/07/05 11:24:00;;;;;;;3.70;1.45;;;;;;;21.64;51.37;100646.38;4999568;28;20041;-72
2021/07/05 11:26:35;;;;;;;3.72;1.02;;;;;;;21.55;49.35;100642.53;5006802;28;20041;-71
2021/07/05 11:29:16;;;;;;;4.60;1.10;;;;;;;21.58;48.83;100652.59;4990378;28;20499;-71